sensor_id;sensor_type;location;lat;lon;timestamp;pressure;altitude;pressure_sealevel;temperature;humidity
65716;BME280;63484;52.054;8.518;2023-06-26T00:02:00;100406.97;;;20.36;97.16
65716;BME280;63484;52.054;8.518;2023-06-26T00:07:05;100408.31;;;20.32;97.47
65716;BME280;63484;52.054;8.518;2023-06-26T00:12:07;100402.09;;;20.24;97.69
65716;BME280;63484;52.054;8.518;2023-06-26T00:17:09;100391.06;;;20.19;96.97
65716;BME280;63484;52.054;8.518;2023-06-26T00:22:12;100396.41;;;20.19;97.22
65716;BME280;63484;52.054;8.518;2023-06-26T00:27:14;100395.19;;;20.13;96.99
65716;BME280;63484;52.054;8.518;2023-06-26T00:32:18;100389.50;;;20.08;96.59
65716;BME280;63484;52.054;8.518;2023-06-26T00:37:23;100387.28;;;20.04;96.40
65716;BME280;63484;52.054;8.518;2023-06-26T00:42:25;100386.63;;;20.02;95.74
65716;BME280;63484;52.054;8.518;2023-06-26T00:47:26;100372.75;;;19.98;95.32
65716;BME280;63484;52.054;8.518;2023-06-26T00:52:30;100373.91;;;19.96;95.49
65716;BME280;63484;52.054;8.518;2023-06-26T00:57:34;100357.22;;;19.94;95.64
65716;BME280;63484;52.054;8.518;2023-06-26T01:02:36;100357.03;;;19.87;95.99
65716;BME280;63484;52.054;8.518;2023-06-26T01:07:40;100360.16;;;19.83;95.72
65716;BME280;63484;52.054;8.518;2023-06-26T01:12:42;100353.47;;;19.79;95.81
65716;BME280;63484;52.054;8.518;2023-06-26T01:17:44;100354.44;;;19.78;96.47
65716;BME280;63484;52.054;8.518;2023-06-26T01:22:57;100348.78;;;19.73;96.20
65716;BME280;63484;52.054;8.518;2023-06-26T01:28:09;100345.06;;;19.66;96.11
65716;BME280;63484;52.054;8.518;2023-06-26T01:33:12;100338.38;;;19.62;95.80
65716;BME280;63484;52.054;8.518;2023-06-26T01:38:16;100328.88;;;19.59;95.56
65716;BME280;63484;52.054;8.518;2023-06-26T01:43:24;100321.03;;;19.58;94.83
65716;BME280;63484;52.054;8.518;2023-06-26T01:48:33;100316.31;;;19.52;94.67
65716;BME280;63484;52.054;8.518;2023-06-26T01:53:41;100314.97;;;19.48;94.36
65716;BME280;63484;52.054;8.518;2023-06-26T01:58:50;100312.63;;;19.45;94.44
65716;BME280;63484;52.054;8.518;2023-06-26T02:03:57;100309.75;;;19.38;94.70
65716;BME280;63484;52.054;8.518;2023-06-26T02:08:59;100306.03;;;19.31;94.73
65716;BME280;63484;52.054;8.518;2023-06-26T02:14:02;100299.19;;;19.28;95.05
65716;BME280;63484;52.054;8.518;2023-06-26T02:19:04;100295.81;;;19.26;95.17
65716;BME280;63484;52.054;8.518;2023-06-26T02:24:06;100290.41;;;19.18;95.00
65716;BME280;63484;52.054;8.518;2023-06-26T02:29:09;100291.72;;;19.14;94.57
65716;BME280;63484;52.054;8.518;2023-06-26T02:34:11;100289.69;;;19.08;95.09
65716;BME280;63484;52.054;8.518;2023-06-26T02:39:12;100283.16;;;19.03;95.04
65716;BME280;63484;52.054;8.518;2023-06-26T02:44:16;100275.34;;;19.01;94.34
65716;BME280;63484;52.054;8.518;2023-06-26T02:49:18;100279.66;;;19.02;94.24
65716;BME280;63484;52.054;8.518;2023-06-26T02:54:20;100275.94;;;18.95;93.92
65716;BME280;63484;52.054;8.518;2023-06-26T02:59:27;100273.94;;;18.97;93.43
65716;BME280;63484;52.054;8.518;2023-06-26T03:04:29;100267.47;;;19.00;93.09
65716;BME280;63484;52.054;8.518;2023-06-26T03:09:31;100275.53;;;19.08;92.27
65716;BME280;63484;52.054;8.518;2023-06-26T03:14:34;100271.03;;;19.08;92.15
65716;BME280;63484;52.054;8.518;2023-06-26T03:19:36;100265.38;;;19.11;91.32
65716;BME280;63484;52.054;8.518;2023-06-26T03:24:55;100266.59;;;19.17;90.79
65716;BME280;63484;52.054;8.518;2023-06-26T03:30:01;100269.84;;;19.28;90.03
65716;BME280;63484;52.054;8.518;2023-06-26T03:35:03;100266.47;;;19.26;89.29
65716;BME280;63484;52.054;8.518;2023-06-26T03:40:06;100267.03;;;19.30;89.09
65716;BME280;63484;52.054;8.518;2023-06-26T03:45:09;100271.56;;;19.38;89.47
65716;BME280;63484;52.054;8.518;2023-06-26T03:50:11;100265.91;;;19.41;88.98
65716;BME280;63484;52.054;8.518;2023-06-26T03:55:13;100266.94;;;19.48;88.87
65716;BME280;63484;52.054;8.518;2023-06-26T04:00:17;100259.38;;;19.69;86.60
65716;BME280;63484;52.054;8.518;2023-06-26T04:05:18;100264.47;;;20.04;84.97
65716;BME280;63484;52.054;8.518;2023-06-26T04:10:20;100265.09;;;20.55;80.88
65716;BME280;63484;52.054;8.518;2023-06-26T04:15:23;100256.75;;;20.67;79.89
65716;BME280;63484;52.054;8.518;2023-06-26T04:20:25;100263.91;;;20.90;78.87
65716;BME280;63484;52.054;8.518;2023-06-26T04:25:27;100261.22;;;21.06;77.65
65716;BME280;63484;52.054;8.518;2023-06-26T04:30:30;100255.69;;;21.16;76.94
65716;BME280;63484;52.054;8.518;2023-06-26T04:35:32;100255.50;;;21.33;76.87
65716;BME280;63484;52.054;8.518;2023-06-26T04:40:37;100249.75;;;21.52;75.57
65716;BME280;63484;52.054;8.518;2023-06-26T04:45:40;100247.97;;;21.67;75.64
65716;BME280;63484;52.054;8.518;2023-06-26T04:50:42;100246.22;;;21.90;73.70
65716;BME280;63484;52.054;8.518;2023-06-26T04:55:44;100257.03;;;22.28;71.38
65716;BME280;63484;52.054;8.518;2023-06-26T05:00:47;100254.81;;;22.62;61.88
65716;BME280;63484;52.054;8.518;2023-06-26T05:05:49;100255.16;;;22.96;60.84
65716;BME280;63484;52.054;8.518;2023-06-26T05:10:50;100261.31;;;23.19;57.44
65716;BME280;63484;52.054;8.518;2023-06-26T05:15:55;100251.63;;;23.33;57.85
65716;BME280;63484;52.054;8.518;2023-06-26T05:20:57;100258.56;;;23.42;56.32
65716;BME280;63484;52.054;8.518;2023-06-26T05:25:59;100256.25;;;23.53;56.30
65716;BME280;63484;52.054;8.518;2023-06-26T05:31:03;100253.63;;;23.74;56.49
65716;BME280;63484;52.054;8.518;2023-06-26T05:36:07;100255.56;;;23.80;55.14
65716;BME280;63484;52.054;8.518;2023-06-26T05:41:11;100251.31;;;24.00;55.61
65716;BME280;63484;52.054;8.518;2023-06-26T05:46:14;100255.91;;;24.06;54.68
65716;BME280;63484;52.054;8.518;2023-06-26T05:51:16;100251.78;;;24.46;53.99
65716;BME280;63484;52.054;8.518;2023-06-26T05:56:21;100255.22;;;24.61;54.08
65716;BME280;63484;52.054;8.518;2023-06-26T06:01:24;100258.50;;;24.56;54.97
65716;BME280;63484;52.054;8.518;2023-06-26T06:06:25;100246.94;;;24.62;54.64
65716;BME280;63484;52.054;8.518;2023-06-26T06:11:27;100245.56;;;24.67;55.74
65716;BME280;63484;52.054;8.518;2023-06-26T06:16:30;100256.25;;;24.60;57.30
65716;BME280;63484;52.054;8.518;2023-06-26T06:21:32;100249.66;;;24.84;56.21
65716;BME280;63484;52.054;8.518;2023-06-26T06:26:33;100253.19;;;25.12;57.05
65716;BME280;63484;52.054;8.518;2023-06-26T06:31:36;100261.06;;;25.41;55.65
65716;BME280;63484;52.054;8.518;2023-06-26T06:36:41;100254.19;;;26.20;53.94
65716;BME280;63484;52.054;8.518;2023-06-26T06:41:42;100258.13;;;27.61;50.30
65716;BME280;63484;52.054;8.518;2023-06-26T06:46:47;100281.47;;;29.84;44.63
65716;BME280;63484;52.054;8.518;2023-06-26T06:51:48;100306.97;;;31.71;40.21
65716;BME280;63484;52.054;8.518;2023-06-26T06:56:50;100312.16;;;32.64;37.85
65716;BME280;63484;52.054;8.518;2023-06-26T07:01:53;100304.13;;;32.41;37.99
65716;BME280;63484;52.054;8.518;2023-06-26T07:06:55;100308.09;;;33.11;36.97
65716;BME280;63484;52.054;8.518;2023-06-26T07:11:56;100297.97;;;33.99;35.58
65716;BME280;63484;52.054;8.518;2023-06-26T07:17:00;100309.41;;;33.96;35.75
65716;BME280;63484;52.054;8.518;2023-06-26T07:22:03;100332.88;;;33.97;35.50
65716;BME280;63484;52.054;8.518;2023-06-26T07:27:05;100330.75;;;33.83;35.79
65716;BME280;63484;52.054;8.518;2023-06-26T07:32:08;100340.69;;;32.45;38.44
65716;BME280;63484;52.054;8.518;2023-06-26T07:37:10;100333.53;;;30.59;43.11
65716;BME280;63484;52.054;8.518;2023-06-26T07:42:12;100330.97;;;31.05;42.02
65716;BME280;63484;52.054;8.518;2023-06-26T07:47:15;100333.22;;;28.91;47.86
65716;BME280;63484;52.054;8.518;2023-06-26T07:52:18;100347.81;;;28.59;49.76
65716;BME280;63484;52.054;8.518;2023-06-26T07:57:20;100351.25;;;27.12;53.68
65716;BME280;63484;52.054;8.518;2023-06-26T08:02:23;100359.88;;;26.62;55.06
65716;BME280;63484;52.054;8.518;2023-06-26T08:07:27;100367.88;;;26.36;56.29
65716;BME280;63484;52.054;8.518;2023-06-26T08:12:30;100380.72;;;26.21;58.07
65716;BME280;63484;52.054;8.518;2023-06-26T08:17:36;100400.72;;;27.19;54.80
65716;BME280;63484;52.054;8.518;2023-06-26T08:22:39;100405.59;;;25.89;58.23
65716;BME280;63484;52.054;8.518;2023-06-26T08:27:41;100394.13;;;25.46;60.25
65716;BME280;63484;52.054;8.518;2023-06-26T08:32:44;100400.59;;;24.89;63.01
65716;BME280;63484;52.054;8.518;2023-06-26T08:37:45;100404.63;;;24.63;63.51
65716;BME280;63484;52.054;8.518;2023-06-26T08:42:47;100395.47;;;24.94;63.53
65716;BME280;63484;52.054;8.518;2023-06-26T08:47:55;100413.22;;;25.51;61.12
65716;BME280;63484;52.054;8.518;2023-06-26T08:53:04;100408.59;;;27.21;55.59
65716;BME280;63484;52.054;8.518;2023-06-26T08:58:07;100417.75;;;27.27;54.86
65716;BME280;63484;52.054;8.518;2023-06-26T09:03:11;100437.03;;;26.97;56.09
65716;BME280;63484;52.054;8.518;2023-06-26T09:08:14;100443.19;;;26.72;57.03
65716;BME280;63484;52.054;8.518;2023-06-26T09:13:16;100428.50;;;26.87;55.98
65716;BME280;63484;52.054;8.518;2023-06-26T09:18:20;100449.94;;;27.08;55.89
65716;BME280;63484;52.054;8.518;2023-06-26T09:23:22;100454.88;;;26.45;57.46
65716;BME280;63484;52.054;8.518;2023-06-26T09:28:24;100455.88;;;26.37;57.00
65716;BME280;63484;52.054;8.518;2023-06-26T09:33:33;100447.63;;;26.99;55.08
65716;BME280;63484;52.054;8.518;2023-06-26T09:38:36;100447.59;;;28.42;51.31
65716;BME280;63484;52.054;8.518;2023-06-26T09:43:45;100457.69;;;27.31;55.05
65716;BME280;63484;52.054;8.518;2023-06-26T09:48:48;100455.66;;;26.32;57.90
65716;BME280;63484;52.054;8.518;2023-06-26T09:53:50;100464.31;;;26.21;58.72
65716;BME280;63484;52.054;8.518;2023-06-26T09:58:52;100447.97;;;26.70;55.00
65716;BME280;63484;52.054;8.518;2023-06-26T10:03:57;100453.00;;;26.86;54.49
65716;BME280;63484;52.054;8.518;2023-06-26T10:09:00;100458.72;;;25.95;58.90
65716;BME280;63484;52.054;8.518;2023-06-26T10:14:04;100465.22;;;25.52;58.81
65716;BME280;63484;52.054;8.518;2023-06-26T10:19:10;100452.13;;;26.72;54.43
65716;BME280;63484;52.054;8.518;2023-06-26T10:24:13;100459.13;;;27.34;52.58
65716;BME280;63484;52.054;8.518;2023-06-26T10:29:16;100462.91;;;26.72;54.37
65716;BME280;63484;52.054;8.518;2023-06-26T10:34:20;100459.38;;;26.31;55.15
65716;BME280;63484;52.054;8.518;2023-06-26T10:39:22;100468.47;;;26.64;54.27
65716;BME280;63484;52.054;8.518;2023-06-26T10:44:27;100476.28;;;27.00;53.97
65716;BME280;63484;52.054;8.518;2023-06-26T10:49:30;100473.63;;;27.19;53.83
65716;BME280;63484;52.054;8.518;2023-06-26T10:54:32;100488.88;;;27.53;52.28
65716;BME280;63484;52.054;8.518;2023-06-26T10:59:38;100499.88;;;26.78;54.38
65716;BME280;63484;52.054;8.518;2023-06-26T11:04:44;100494.78;;;25.94;50.77
65716;BME280;63484;52.054;8.518;2023-06-26T11:10:00;100505.38;;;26.64;50.01
65716;BME280;63484;52.054;8.518;2023-06-26T11:15:02;100513.06;;;27.07;48.28
65716;BME280;63484;52.054;8.518;2023-06-26T11:20:07;100511.97;;;26.89;47.46
65716;BME280;63484;52.054;8.518;2023-06-26T11:25:10;100510.91;;;27.50;46.50
65716;BME280;63484;52.054;8.518;2023-06-26T11:30:24;100499.69;;;27.47;44.05
65716;BME280;63484;52.054;8.518;2023-06-26T11:35:27;100506.53;;;27.30;43.75
65716;BME280;63484;52.054;8.518;2023-06-26T11:40:32;100517.44;;;27.08;42.14
65716;BME280;63484;52.054;8.518;2023-06-26T11:45:34;100522.00;;;27.08;42.37
65716;BME280;63484;52.054;8.518;2023-06-26T11:50:38;100522.31;;;27.33;43.18
65716;BME280;63484;52.054;8.518;2023-06-26T11:55:43;100532.53;;;27.50;40.60
65716;BME280;63484;52.054;8.518;2023-06-26T12:00:47;100531.97;;;27.94;41.90
65716;BME280;63484;52.054;8.518;2023-06-26T12:05:50;100533.00;;;27.99;40.17
65716;BME280;63484;52.054;8.518;2023-06-26T12:10:52;100540.88;;;28.27;39.81
65716;BME280;63484;52.054;8.518;2023-06-26T12:15:54;100529.25;;;27.94;42.35
65716;BME280;63484;52.054;8.518;2023-06-26T12:20:57;100541.28;;;27.52;40.95
65716;BME280;63484;52.054;8.518;2023-06-26T12:26:15;100551.28;;;27.71;43.15
65716;BME280;63484;52.054;8.518;2023-06-26T12:31:20;100550.03;;;28.13;41.68
65716;BME280;63484;52.054;8.518;2023-06-26T12:36:23;100540.84;;;28.60;38.93
65716;BME280;63484;52.054;8.518;2023-06-26T12:41:27;100543.81;;;28.12;40.99
65716;BME280;63484;52.054;8.518;2023-06-26T12:46:38;100556.06;;;28.28;41.02
65716;BME280;63484;52.054;8.518;2023-06-26T12:51:41;100552.97;;;28.18;40.30
65716;BME280;63484;52.054;8.518;2023-06-26T12:56:43;100551.53;;;28.02;39.56
65716;BME280;63484;52.054;8.518;2023-06-26T13:01:45;100553.38;;;28.02;39.90
65716;BME280;63484;52.054;8.518;2023-06-26T13:06:48;100567.91;;;27.62;39.67
65716;BME280;63484;52.054;8.518;2023-06-26T13:11:50;100570.44;;;27.16;39.52
65716;BME280;63484;52.054;8.518;2023-06-26T13:16:52;100567.28;;;27.79;40.69
65716;BME280;63484;52.054;8.518;2023-06-26T13:21:58;100573.13;;;27.76;42.04
65716;BME280;63484;52.054;8.518;2023-06-26T13:27:00;100560.75;;;27.28;44.14
65716;BME280;63484;52.054;8.518;2023-06-26T13:32:02;100563.94;;;26.97;42.43
65716;BME280;63484;52.054;8.518;2023-06-26T13:37:06;100559.97;;;26.93;42.96
65716;BME280;63484;52.054;8.518;2023-06-26T13:42:10;100575.72;;;27.31;43.20
65716;BME280;63484;52.054;8.518;2023-06-26T13:47:13;100576.38;;;27.39;41.91
65716;BME280;63484;52.054;8.518;2023-06-26T13:52:18;100578.47;;;26.96;42.98
65716;BME280;63484;52.054;8.518;2023-06-26T13:57:20;100591.31;;;25.84;44.87
65716;BME280;63484;52.054;8.518;2023-06-26T14:02:22;100601.84;;;25.58;45.26
65716;BME280;63484;52.054;8.518;2023-06-26T14:07:25;100596.16;;;26.37;45.69
65716;BME280;63484;52.054;8.518;2023-06-26T14:12:27;100603.09;;;26.53;43.11
65716;BME280;63484;52.054;8.518;2023-06-26T14:17:28;100597.34;;;26.62;43.06
65716;BME280;63484;52.054;8.518;2023-06-26T14:22:31;100601.41;;;26.73;43.48
65716;BME280;63484;52.054;8.518;2023-06-26T14:27:33;100590.28;;;26.61;43.59
65716;BME280;63484;52.054;8.518;2023-06-26T14:32:35;100594.72;;;26.41;43.88
65716;BME280;63484;52.054;8.518;2023-06-26T14:37:38;100603.91;;;26.19;43.03
65716;BME280;63484;52.054;8.518;2023-06-26T14:42:41;100602.72;;;26.28;42.47
65716;BME280;63484;52.054;8.518;2023-06-26T14:47:45;100618.41;;;26.73;41.50
65716;BME280;63484;52.054;8.518;2023-06-26T14:52:48;100622.75;;;25.56;43.47
65716;BME280;63484;52.054;8.518;2023-06-26T14:57:50;100623.09;;;25.67;43.11
65716;BME280;63484;52.054;8.518;2023-06-26T15:02:55;100628.81;;;26.21;40.97
65716;BME280;63484;52.054;8.518;2023-06-26T15:08:02;100624.13;;;26.36;40.24
65716;BME280;63484;52.054;8.518;2023-06-26T15:13:03;100631.56;;;25.85;39.34
65716;BME280;63484;52.054;8.518;2023-06-26T15:18:05;100626.03;;;25.72;40.11
65716;BME280;63484;52.054;8.518;2023-06-26T15:23:08;100639.03;;;25.48;39.83
65716;BME280;63484;52.054;8.518;2023-06-26T15:28:12;100629.75;;;25.36;39.82
65716;BME280;63484;52.054;8.518;2023-06-26T15:33:14;100630.78;;;25.35;39.98
65716;BME280;63484;52.054;8.518;2023-06-26T15:38:17;100625.34;;;24.85;41.39
65716;BME280;63484;52.054;8.518;2023-06-26T15:43:19;100632.84;;;25.04;40.53
65716;BME280;63484;52.054;8.518;2023-06-26T15:48:21;100645.28;;;24.90;41.09
65716;BME280;63484;52.054;8.518;2023-06-26T15:53:34;100644.91;;;25.37;40.86
65716;BME280;63484;52.054;8.518;2023-06-26T15:58:38;100647.22;;;25.40;40.98
65716;BME280;63484;52.054;8.518;2023-06-26T16:03:42;100656.22;;;25.18;39.92
65716;BME280;63484;52.054;8.518;2023-06-26T16:08:46;100659.84;;;24.96;40.33
65716;BME280;63484;52.054;8.518;2023-06-26T16:13:49;100667.06;;;24.81;40.07
65716;BME280;63484;52.054;8.518;2023-06-26T16:18:50;100671.28;;;24.83;40.31
65716;BME280;63484;52.054;8.518;2023-06-26T16:23:53;100661.66;;;24.66;40.52
65716;BME280;63484;52.054;8.518;2023-06-26T16:28:55;100660.72;;;24.44;40.43
65716;BME280;63484;52.054;8.518;2023-06-26T16:33:57;100658.00;;;24.44;39.95
65716;BME280;63484;52.054;8.518;2023-06-26T16:39:00;100662.72;;;24.42;40.88
65716;BME280;63484;52.054;8.518;2023-06-26T16:44:03;100668.66;;;24.38;40.30
65716;BME280;63484;52.054;8.518;2023-06-26T16:49:05;100668.25;;;24.26;40.15
65716;BME280;63484;52.054;8.518;2023-06-26T16:54:08;100666.50;;;23.88;40.61
65716;BME280;63484;52.054;8.518;2023-06-26T16:59:10;100679.81;;;23.82;40.49
65716;BME280;63484;52.054;8.518;2023-06-26T17:04:12;100673.53;;;23.67;40.68
65716;BME280;63484;52.054;8.518;2023-06-26T17:09:15;100680.03;;;23.72;40.82
65716;BME280;63484;52.054;8.518;2023-06-26T17:14:16;100677.97;;;23.82;41.37
65716;BME280;63484;52.054;8.518;2023-06-26T17:19:18;100683.16;;;23.53;42.31
65716;BME280;63484;52.054;8.518;2023-06-26T17:24:21;100691.94;;;23.47;42.38
65716;BME280;63484;52.054;8.518;2023-06-26T17:29:23;100704.25;;;23.17;43.38
65716;BME280;63484;52.054;8.518;2023-06-26T17:34:24;100713.66;;;23.13;43.14
65716;BME280;63484;52.054;8.518;2023-06-26T17:39:27;100707.13;;;23.16;44.35
65716;BME280;63484;52.054;8.518;2023-06-26T17:44:31;100715.72;;;23.58;43.21
65716;BME280;63484;52.054;8.518;2023-06-26T17:49:33;100723.63;;;23.82;41.86
65716;BME280;63484;52.054;8.518;2023-06-26T17:54:36;100726.84;;;23.47;39.54
65716;BME280;63484;52.054;8.518;2023-06-26T17:59:38;100735.31;;;23.04;40.12
65716;BME280;63484;52.054;8.518;2023-06-26T18:04:39;100736.88;;;22.90;41.75
65716;BME280;63484;52.054;8.518;2023-06-26T18:09:43;100734.06;;;22.60;43.02
65716;BME280;63484;52.054;8.518;2023-06-26T18:14:44;100748.06;;;22.22;44.46
65716;BME280;63484;52.054;8.518;2023-06-26T18:19:48;100749.53;;;21.92;44.66
65716;BME280;63484;52.054;8.518;2023-06-26T18:24:51;100750.94;;;21.70;44.93
65716;BME280;63484;52.054;8.518;2023-06-26T18:29:53;100758.56;;;21.49;45.60
65716;BME280;63484;52.054;8.518;2023-06-26T18:34:54;100761.69;;;21.45;46.44
65716;BME280;63484;52.054;8.518;2023-06-26T18:39:57;100764.97;;;21.31;47.06
65716;BME280;63484;52.054;8.518;2023-06-26T18:44:59;100757.88;;;21.14;48.25
65716;BME280;63484;52.054;8.518;2023-06-26T18:50:01;100764.38;;;21.11;47.01
65716;BME280;63484;52.054;8.518;2023-06-26T18:55:05;100770.53;;;20.86;46.99
65716;BME280;63484;52.054;8.518;2023-06-26T19:00:08;100786.28;;;20.72;44.51
65716;BME280;63484;52.054;8.518;2023-06-26T19:05:12;100796.06;;;20.63;44.08
65716;BME280;63484;52.054;8.518;2023-06-26T19:10:16;100799.56;;;20.46;45.33
65716;BME280;63484;52.054;8.518;2023-06-26T19:15:19;100798.44;;;20.31;46.58
65716;BME280;63484;52.054;8.518;2023-06-26T19:20:23;100799.38;;;20.12;47.93
65716;BME280;63484;52.054;8.518;2023-06-26T19:25:26;100796.53;;;19.96;48.92
65716;BME280;63484;52.054;8.518;2023-06-26T19:30:28;100802.69;;;19.79;49.55
65716;BME280;63484;52.054;8.518;2023-06-26T19:35:29;100816.59;;;19.73;51.30
65716;BME280;63484;52.054;8.518;2023-06-26T19:40:36;100818.34;;;19.55;51.40
65716;BME280;63484;52.054;8.518;2023-06-26T19:45:37;100819.84;;;19.40;52.18
65716;BME280;63484;52.054;8.518;2023-06-26T19:50:39;100830.78;;;19.27;53.14
65716;BME280;63484;52.054;8.518;2023-06-26T19:55:42;100832.91;;;19.14;53.68
65716;BME280;63484;52.054;8.518;2023-06-26T20:00:44;100836.03;;;19.00;54.64
65716;BME280;63484;52.054;8.518;2023-06-26T20:05:46;100851.34;;;18.89;54.74
65716;BME280;63484;52.054;8.518;2023-06-26T20:10:49;100848.41;;;18.73;55.49
65716;BME280;63484;52.054;8.518;2023-06-26T20:15:50;100851.78;;;18.65;56.04
65716;BME280;63484;52.054;8.518;2023-06-26T20:20:52;100859.19;;;18.52;56.41
65716;BME280;63484;52.054;8.518;2023-06-26T20:25:55;100862.66;;;18.43;57.12
65716;BME280;63484;52.054;8.518;2023-06-26T20:30:59;100863.47;;;18.34;57.51
65716;BME280;63484;52.054;8.518;2023-06-26T20:36:01;100863.31;;;18.26;57.64
65716;BME280;63484;52.054;8.518;2023-06-26T20:41:05;100858.84;;;18.17;57.62
65716;BME280;63484;52.054;8.518;2023-06-26T20:46:07;100869.13;;;18.01;59.14
65716;BME280;63484;52.054;8.518;2023-06-26T20:51:09;100871.75;;;17.91;59.66
65716;BME280;63484;52.054;8.518;2023-06-26T20:56:13;100879.72;;;17.82;59.55
65716;BME280;63484;52.054;8.518;2023-06-26T21:01:15;100887.53;;;17.74;60.95
65716;BME280;63484;52.054;8.518;2023-06-26T21:06:16;100891.25;;;17.62;60.98
65716;BME280;63484;52.054;8.518;2023-06-26T21:11:20;100900.41;;;17.48;61.34
65716;BME280;63484;52.054;8.518;2023-06-26T21:16:21;100894.16;;;17.38;62.75
65716;BME280;63484;52.054;8.518;2023-06-26T21:21:23;100904.34;;;17.33;62.40
65716;BME280;63484;52.054;8.518;2023-06-26T21:26:26;100900.22;;;17.20;62.88
65716;BME280;63484;52.054;8.518;2023-06-26T21:31:28;100902.34;;;17.05;63.55
65716;BME280;63484;52.054;8.518;2023-06-26T21:36:29;100904.88;;;16.96;64.81
65716;BME280;63484;52.054;8.518;2023-06-26T21:41:34;100899.16;;;16.91;63.93
65716;BME280;63484;52.054;8.518;2023-06-26T21:46:36;100902.63;;;16.91;63.89
65716;BME280;63484;52.054;8.518;2023-06-26T21:51:37;100900.09;;;16.90;63.83
65716;BME280;63484;52.054;8.518;2023-06-26T21:56:40;100905.66;;;16.87;63.79
65716;BME280;63484;52.054;8.518;2023-06-26T22:01:42;100903.31;;;16.73;63.16
65716;BME280;63484;52.054;8.518;2023-06-26T22:06:44;100915.06;;;16.59;64.26
65716;BME280;63484;52.054;8.518;2023-06-26T22:11:47;100915.34;;;16.45;64.78
65716;BME280;63484;52.054;8.518;2023-06-26T22:16:48;100921.00;;;16.40;65.21
65716;BME280;63484;52.054;8.518;2023-06-26T22:21:50;100923.88;;;16.37;64.44
65716;BME280;63484;52.054;8.518;2023-06-26T22:26:54;100928.47;;;16.24;64.64
65716;BME280;63484;52.054;8.518;2023-06-26T22:31:55;100930.34;;;16.13;64.61
65716;BME280;63484;52.054;8.518;2023-06-26T22:36:57;100936.97;;;16.07;65.69
65716;BME280;63484;52.054;8.518;2023-06-26T22:42:00;100935.50;;;16.03;64.59
65716;BME280;63484;52.054;8.518;2023-06-26T22:47:03;100933.56;;;16.05;63.18
65716;BME280;63484;52.054;8.518;2023-06-26T22:52:05;100929.38;;;16.03;64.19
65716;BME280;63484;52.054;8.518;2023-06-26T22:57:08;100926.47;;;15.95;63.49
65716;BME280;63484;52.054;8.518;2023-06-26T23:02:12;100930.06;;;15.94;63.09
65716;BME280;63484;52.054;8.518;2023-06-26T23:07:14;100926.59;;;15.93;63.06
65716;BME280;63484;52.054;8.518;2023-06-26T23:12:17;100932.03;;;15.92;63.32
65716;BME280;63484;52.054;8.518;2023-06-26T23:17:19;100937.66;;;15.87;63.42
65716;BME280;63484;52.054;8.518;2023-06-26T23:22:20;100931.41;;;15.88;62.72
65716;BME280;63484;52.054;8.518;2023-06-26T23:27:23;100935.50;;;15.81;62.63
65716;BME280;63484;52.054;8.518;2023-06-26T23:32:25;100945.84;;;15.73;62.62
65716;BME280;63484;52.054;8.518;2023-06-26T23:37:28;100942.97;;;15.65;63.99
65716;BME280;63484;52.054;8.518;2023-06-26T23:42:31;100932.59;;;15.51;64.86
65716;BME280;63484;52.054;8.518;2023-06-26T23:47:33;100936.59;;;15.33;66.26
65716;BME280;63484;52.054;8.518;2023-06-26T23:52:34;100928.84;;;15.19;67.14
65716;BME280;63484;52.054;8.518;2023-06-26T23:57:39;100945.44;;;15.10;68.14
